createdAt,value
2018-06-13T00:00:18.935Z,984.11
2018-06-13T00:01:10.942Z,984.07
2018-06-13T00:02:04.935Z,984.06
2018-06-13T00:03:04.936Z,984.08
2018-06-13T00:04:25.561Z,984.04
2018-06-13T00:05:04.670Z,984.01
2018-06-13T00:06:05.440Z,984.02
2018-06-13T00:07:04.909Z,984.03
2018-06-13T00:08:05.935Z,984.06
2018-06-13T00:09:05.937Z,984.01
2018-06-13T00:10:05.868Z,984.04
2018-06-13T00:11:05.939Z,984.09
2018-06-13T00:12:27.438Z,984.07
2018-06-13T00:13:06.436Z,984.03
2018-06-13T00:14:06.441Z,984.10
2018-06-13T00:15:06.935Z,984.06
2018-06-13T00:16:06.937Z,984.09
2018-06-13T00:17:12.944Z,984.12
2018-06-13T00:18:08.368Z,984.06
2018-06-13T00:19:06.936Z,984.10
2018-06-13T00:21:59.705Z,984.07
2018-06-13T00:22:38.723Z,984.08
2018-06-13T00:23:38.712Z,984.08
2018-06-13T00:25:00.213Z,984.09
2018-06-13T00:25:39.218Z,984.11
2018-06-13T00:26:39.222Z,984.07
2018-06-13T00:27:39.217Z,984.08
2018-06-13T00:28:39.712Z,984.06
2018-06-13T00:29:39.711Z,984.09
2018-06-13T00:30:39.711Z,984.06
2018-06-13T00:31:39.195Z,984.08
2018-06-13T00:32:40.210Z,984.10
2018-06-13T00:33:40.211Z,984.13
2018-06-13T00:36:11.715Z,984.15
2018-06-13T00:37:11.730Z,984.14
2018-06-13T00:38:11.722Z,984.11
2018-06-13T00:39:34.220Z,984.10
2018-06-13T00:40:12.224Z,984.09
2018-06-13T00:41:11.579Z,984.08
2018-06-13T00:42:13.654Z,984.12
2018-06-13T00:43:12.737Z,984.14
2018-06-13T00:44:12.730Z,984.13
2018-06-13T00:45:33.728Z,984.12
2018-06-13T00:46:12.725Z,984.11
2018-06-13T00:47:34.223Z,984.13
2018-06-13T00:48:14.693Z,984.12
2018-06-13T00:50:45.185Z,984.12
2018-06-13T00:51:45.192Z,984.11
2018-06-13T00:52:45.192Z,984.13
2018-06-13T00:53:47.693Z,984.13
2018-06-13T00:54:45.693Z,984.11
2018-06-13T00:55:48.625Z,984.13
2018-06-13T00:57:09.173Z,984.14
2018-06-13T00:58:10.192Z,984.11
2018-06-13T00:58:45.415Z,984.10
2018-06-13T00:59:47.635Z,984.08
2018-06-13T01:00:46.192Z,984.05
2018-06-13T01:01:45.666Z,984.03
2018-06-13T01:02:52.693Z,984.01
2018-06-13T01:03:47.633Z,983.98
2018-06-13T01:04:49.125Z,983.99
2018-06-13T01:05:46.690Z,983.96
2018-06-13T01:06:53.193Z,983.98
2018-06-13T01:07:49.193Z,983.96
2018-06-13T01:09:07.550Z,983.98
2018-06-13T01:09:47.192Z,983.96
2018-06-13T01:12:18.936Z,983.98
2018-06-13T01:13:18.946Z,983.95
2018-06-13T01:14:18.943Z,983.96
2018-06-13T01:15:18.541Z,983.92
2018-06-13T01:16:19.445Z,983.95
2018-06-13T01:17:19.450Z,983.96
2018-06-13T01:18:19.443Z,983.94
2018-06-13T01:19:19.945Z,983.90
2018-06-13T01:20:19.963Z,983.96
2018-06-13T01:21:19.943Z,984.00
2018-06-13T01:22:19.943Z,984.00
2018-06-13T01:23:40.522Z,983.97
2018-06-13T01:24:47.443Z,984.02
2018-06-13T01:25:41.441Z,984.05
2018-06-13T01:26:47.448Z,984.02
2018-06-13T01:28:52.075Z,983.97
2018-06-13T01:29:52.082Z,983.93
2018-06-13T01:30:52.078Z,983.99
2018-06-13T01:31:52.589Z,984.00
2018-06-13T01:32:52.582Z,984.02
2018-06-13T01:35:24.089Z,984.02
2018-06-13T01:36:24.092Z,984.03
2018-06-13T01:37:24.097Z,984.02
2018-06-13T01:38:45.592Z,984.03
2018-06-13T01:39:45.592Z,983.98
2018-06-13T01:40:24.596Z,984.01
2018-06-13T01:41:24.592Z,983.98
2018-06-13T01:42:25.092Z,983.98
2018-06-13T01:43:46.092Z,983.98
2018-06-13T01:44:25.092Z,984.00
2018-06-13T01:45:25.159Z,983.99
2018-06-13T01:46:25.596Z,984.01
2018-06-13T01:48:56.845Z,984.00
2018-06-13T01:49:56.852Z,984.04
2018-06-13T01:50:58.292Z,984.01
2018-06-13T01:51:56.443Z,984.02
2018-06-13T01:52:56.542Z,984.02
2018-06-13T01:53:57.355Z,984.02
2018-06-13T01:54:57.351Z,983.98
2018-06-13T01:55:57.351Z,984.02
2018-06-13T01:58:50.136Z,984.00
2018-06-13T01:59:50.145Z,984.02
2018-06-13T02:00:31.082Z,984.04
2018-06-13T02:01:29.645Z,984.05
2018-06-13T02:04:00.911Z,984.06
2018-06-13T02:05:00.919Z,984.05
2018-06-13T02:06:00.931Z,984.07
2018-06-13T02:07:01.424Z,984.08
2018-06-13T02:08:15.423Z,984.05
2018-06-13T02:09:15.421Z,984.08
2018-06-13T02:10:01.419Z,984.03
2018-06-13T02:11:22.918Z,984.06
2018-06-13T02:12:22.923Z,984.06
2018-06-13T02:13:03.351Z,984.06
2018-06-13T02:14:24.918Z,984.10
2018-06-13T02:15:04.419Z,984.10
2018-06-13T02:17:35.226Z,984.13
2018-06-13T02:18:33.794Z,984.15
2018-06-13T02:19:33.794Z,984.13
2018-06-13T02:20:55.296Z,984.21
2018-06-13T02:21:33.526Z,984.20
2018-06-13T02:22:34.326Z,984.20
2018-06-13T02:23:55.299Z,984.20
2018-06-13T02:24:34.294Z,984.21
2018-06-13T02:25:55.794Z,984.22
2018-06-13T02:26:40.801Z,984.22
2018-06-13T02:27:34.798Z,984.22
2018-06-13T02:28:34.797Z,984.24
2018-06-13T02:29:35.294Z,984.23
2018-06-13T02:30:56.294Z,984.22
2018-06-13T02:31:35.303Z,984.23
2018-06-13T02:32:35.294Z,984.21
2018-06-13T02:35:28.062Z,984.25
2018-06-13T02:36:30.518Z,984.23
2018-06-13T02:37:29.037Z,984.21
2018-06-13T02:38:09.549Z,984.22
2018-06-13T02:39:29.544Z,984.24
2018-06-13T02:40:07.549Z,984.22
2018-06-13T02:41:10.043Z,984.26
2018-06-13T02:42:08.043Z,984.25
2018-06-13T02:43:08.049Z,984.27
2018-06-13T02:44:28.376Z,984.25
2018-06-13T02:46:39.622Z,984.24
2018-06-13T02:47:39.633Z,984.28
2018-06-13T02:48:39.694Z,984.27
2018-06-13T02:49:40.130Z,984.26
2018-06-13T02:50:40.129Z,984.25
2018-06-13T02:51:39.484Z,984.21
2018-06-13T02:52:40.130Z,984.21
2018-06-13T02:55:11.873Z,984.27
2018-06-13T02:56:32.880Z,984.25
2018-06-13T02:57:11.880Z,984.29
2018-06-13T02:58:17.312Z,984.29
2018-06-13T02:59:12.380Z,984.26
2018-06-13T03:00:26.380Z,984.27
2018-06-13T03:01:32.837Z,984.28
2018-06-13T03:02:14.879Z,984.29
2018-06-13T03:03:12.880Z,984.28
2018-06-13T03:04:26.880Z,984.23
2018-06-13T03:05:12.880Z,984.26
2018-06-13T03:06:13.380Z,984.24
2018-06-13T03:07:13.378Z,984.24
2018-06-13T03:08:13.387Z,984.23
2018-06-13T03:09:13.380Z,984.24
2018-06-13T03:10:13.880Z,984.22
2018-06-13T03:11:13.880Z,984.24
2018-06-13T03:12:13.886Z,984.23
2018-06-13T03:13:13.881Z,984.27
2018-06-13T03:15:45.661Z,984.26
2018-06-13T03:18:17.154Z,984.31
2018-06-13T03:19:38.160Z,984.33
2018-06-13T03:20:17.158Z,984.34
2018-06-13T03:21:38.667Z,984.33
2018-06-13T03:22:38.661Z,984.30
2018-06-13T03:23:17.010Z,984.31
2018-06-13T03:24:38.665Z,984.30
2018-06-13T03:25:18.162Z,984.30
2018-06-13T03:26:19.594Z,984.31
2018-06-13T03:27:18.178Z,984.32
2018-06-13T03:28:19.594Z,984.31
2018-06-13T03:29:39.661Z,984.31
2018-06-13T03:30:18.664Z,984.34
2018-06-13T03:31:32.672Z,984.36
2018-06-13T03:32:18.659Z,984.39
2018-06-13T03:33:40.162Z,984.39
2018-06-13T03:34:19.169Z,984.36
2018-06-13T03:35:19.222Z,984.42
2018-06-13T03:36:20.602Z,984.45
2018-06-13T03:37:40.708Z,984.43
2018-06-13T03:38:40.666Z,984.39
2018-06-13T03:40:51.031Z,984.40
2018-06-13T03:42:12.041Z,984.44
2018-06-13T03:42:51.038Z,984.43
2018-06-13T03:43:51.540Z,984.43
2018-06-13T03:45:12.539Z,984.43
2018-06-13T03:45:51.539Z,984.41
2018-06-13T03:46:51.581Z,984.41
2018-06-13T03:47:51.178Z,984.41
2018-06-13T03:48:52.996Z,984.41
2018-06-13T03:50:06.071Z,984.40
2018-06-13T03:50:52.055Z,984.38
2018-06-13T03:51:52.040Z,984.41
2018-06-13T03:52:53.971Z,984.38
2018-06-13T03:53:51.761Z,984.38
2018-06-13T03:54:54.001Z,984.40
2018-06-13T03:55:52.535Z,984.38
2018-06-13T03:57:13.121Z,984.41
2018-06-13T03:57:52.237Z,984.42
2018-06-13T03:58:52.327Z,984.41
2018-06-13T03:59:53.038Z,984.45
2018-06-13T04:01:53.545Z,984.39
2018-06-13T04:02:53.538Z,984.42
2018-06-13T04:03:53.538Z,984.41
2018-06-13T04:04:53.542Z,984.39
2018-06-13T04:07:31.283Z,984.40
2018-06-13T04:08:46.290Z,984.39
2018-06-13T04:09:26.248Z,984.40
2018-06-13T04:10:25.787Z,984.35
2018-06-13T04:11:27.791Z,984.32
2018-06-13T04:12:25.788Z,984.36
2018-06-13T04:13:46.790Z,984.33
2018-06-13T04:14:26.286Z,984.37
2018-06-13T04:15:26.293Z,984.38
2018-06-13T04:16:26.286Z,984.37
2018-06-13T04:17:26.287Z,984.39
2018-06-13T04:18:49.792Z,984.40
2018-06-13T04:19:26.792Z,984.40
2018-06-13T04:20:26.153Z,984.45
2018-06-13T04:21:26.786Z,984.48
2018-06-13T04:22:29.291Z,984.49
2018-06-13T04:23:27.286Z,984.52
2018-06-13T04:24:26.635Z,984.50
2018-06-13T04:25:27.287Z,984.45
2018-06-13T04:26:26.910Z,984.52
2018-06-13T04:27:27.787Z,984.52
2018-06-13T04:28:27.784Z,984.51
2018-06-13T04:29:27.787Z,984.48
2018-06-13T04:30:49.286Z,984.45
2018-06-13T04:31:28.286Z,984.46
2018-06-13T04:32:28.286Z,984.43
2018-06-13T04:33:27.758Z,984.42
2018-06-13T04:34:28.788Z,984.44
2018-06-13T04:35:28.785Z,984.45
2018-06-13T04:36:28.788Z,984.44
2018-06-13T04:37:28.787Z,984.45
2018-06-13T04:38:50.286Z,984.49
2018-06-13T04:39:29.290Z,984.47
2018-06-13T04:40:29.286Z,984.49
2018-06-13T04:41:29.285Z,984.44
2018-06-13T04:42:50.786Z,984.52
2018-06-13T04:43:29.794Z,984.50
2018-06-13T04:44:29.785Z,984.56
2018-06-13T04:45:31.251Z,984.51
2018-06-13T04:46:29.350Z,984.50
2018-06-13T04:49:01.597Z,984.49
2018-06-13T04:50:00.947Z,984.50
2018-06-13T04:51:01.602Z,984.48
2018-06-13T04:52:04.104Z,984.50
2018-06-13T04:53:03.082Z,984.56
2018-06-13T04:54:23.108Z,984.51
2018-06-13T04:55:22.560Z,984.54
2018-06-13T04:57:33.822Z,984.54
2018-06-13T04:58:47.823Z,984.57
2018-06-13T04:59:33.823Z,984.56
2018-06-13T05:00:40.323Z,984.54
2018-06-13T05:01:55.323Z,984.62
2018-06-13T05:02:55.329Z,984.61
2018-06-13T05:03:34.325Z,984.62
2018-06-13T05:04:34.825Z,984.63
2018-06-13T05:05:34.823Z,984.62
2018-06-13T05:06:55.823Z,984.63
2018-06-13T05:07:34.824Z,984.66
2018-06-13T05:10:06.573Z,984.66
2018-06-13T05:11:06.581Z,984.66
2018-06-13T05:12:06.574Z,984.68
2018-06-13T05:13:09.074Z,984.63
2018-06-13T05:14:07.091Z,984.67
2018-06-13T05:15:07.074Z,984.66
2018-06-13T05:16:07.074Z,984.64
2018-06-13T05:17:28.575Z,984.68
2018-06-13T05:18:07.571Z,984.70
2018-06-13T05:19:07.567Z,984.67
2018-06-13T05:20:07.571Z,984.71
2018-06-13T05:21:08.074Z,984.68
2018-06-13T05:22:08.074Z,984.73
2018-06-13T05:23:08.074Z,984.73
2018-06-13T05:24:08.079Z,984.75
2018-06-13T05:25:08.572Z,984.76
2018-06-13T05:26:08.576Z,984.80
2018-06-13T05:27:08.574Z,984.79
2018-06-13T05:28:08.575Z,984.80
2018-06-13T05:29:09.070Z,984.81
2018-06-13T05:30:15.091Z,984.80
2018-06-13T05:31:09.080Z,984.82
2018-06-13T05:32:09.074Z,984.83
2018-06-13T05:33:32.548Z,984.83
2018-06-13T05:35:40.446Z,984.83
2018-06-13T05:36:40.294Z,984.84
2018-06-13T05:38:03.938Z,984.84
2018-06-13T05:38:40.566Z,984.89
2018-06-13T05:40:04.441Z,984.86
2018-06-13T05:40:41.438Z,984.86
2018-06-13T05:41:40.912Z,984.92
2018-06-13T05:42:41.933Z,984.91
2018-06-13T05:44:02.938Z,984.91
2018-06-13T05:44:41.942Z,984.93
2018-06-13T05:46:02.969Z,984.96
2018-06-13T05:46:42.440Z,984.92
2018-06-13T05:48:03.438Z,984.93
2018-06-13T05:49:03.442Z,984.92
2018-06-13T05:49:42.870Z,984.94
2018-06-13T05:50:42.003Z,984.94
2018-06-13T05:51:42.941Z,984.98
2018-06-13T05:52:42.932Z,984.98
2018-06-13T05:53:42.942Z,985.01
2018-06-13T05:54:46.370Z,985.02
2018-06-13T05:56:03.509Z,985.00
2018-06-13T05:57:03.596Z,984.99
2018-06-13T05:58:04.436Z,985.03
2018-06-13T06:01:46.408Z,984.96
2018-06-13T06:02:46.400Z,984.96
2018-06-13T06:04:07.400Z,985.00
2018-06-13T06:04:46.901Z,985.02
2018-06-13T06:05:46.906Z,985.07
2018-06-13T06:06:46.247Z,985.05
2018-06-13T06:07:46.899Z,985.03
2018-06-13T06:08:47.401Z,985.07
2018-06-13T06:09:47.408Z,985.10
2018-06-13T06:10:47.400Z,985.09
2018-06-13T06:12:14.913Z,985.06
2018-06-13T06:12:53.898Z,985.02
2018-06-13T06:15:19.839Z,985.06
2018-06-13T06:16:40.985Z,985.06
2018-06-13T06:17:19.785Z,985.01
2018-06-13T06:18:19.814Z,985.00
2018-06-13T06:19:40.790Z,985.04
2018-06-13T06:20:22.295Z,985.01
2018-06-13T06:21:19.523Z,985.01
2018-06-13T06:22:20.288Z,985.05
2018-06-13T06:23:20.287Z,985.10
2018-06-13T06:27:25.494Z,985.13
2018-06-13T06:28:23.500Z,985.15
2018-06-13T06:29:23.500Z,985.15
2018-06-13T06:30:45.001Z,985.19
2018-06-13T06:33:09.382Z,985.19
2018-06-13T06:33:55.389Z,985.15
2018-06-13T06:34:55.389Z,985.16
2018-06-13T06:37:27.144Z,985.11
2018-06-13T06:38:26.521Z,985.12
2018-06-13T06:39:28.082Z,985.13
2018-06-13T06:40:29.650Z,985.12
2018-06-13T06:41:26.870Z,985.15
2018-06-13T06:42:27.652Z,985.17
2018-06-13T06:43:27.151Z,985.19
2018-06-13T06:44:42.151Z,985.19
2018-06-13T06:45:27.383Z,985.15
2018-06-13T06:46:28.150Z,985.18
2018-06-13T06:47:42.151Z,985.18
2018-06-13T06:49:59.939Z,985.17
2018-06-13T06:50:59.943Z,985.21
2018-06-13T06:51:59.422Z,985.19
2018-06-13T06:53:14.443Z,985.22
2018-06-13T06:54:06.445Z,985.22
2018-06-13T06:55:21.484Z,985.25
2018-06-13T06:56:00.443Z,985.21
2018-06-13T06:57:00.042Z,985.26
2018-06-13T06:58:14.944Z,985.26
2018-06-13T06:59:00.948Z,985.24
2018-06-13T07:00:09.935Z,985.28
2018-06-13T07:01:15.448Z,985.26
2018-06-13T07:02:15.443Z,985.29
2018-06-13T07:04:32.211Z,985.30
2018-06-13T07:05:32.331Z,985.30
2018-06-13T07:06:32.945Z,985.28
2018-06-13T07:07:32.554Z,985.30
2018-06-13T07:08:34.399Z,985.29
2018-06-13T07:09:33.449Z,985.27
2018-06-13T07:10:33.448Z,985.30
2018-06-13T07:11:32.942Z,985.30
2018-06-13T07:12:33.945Z,985.25
2018-06-13T07:13:35.379Z,985.29
2018-06-13T07:14:54.276Z,985.31
2018-06-13T07:17:07.521Z,985.32
2018-06-13T07:18:19.540Z,985.30
2018-06-13T07:19:06.999Z,985.32
2018-06-13T07:20:12.034Z,985.33
2018-06-13T07:21:30.026Z,985.31
2018-06-13T07:22:33.045Z,985.37
2018-06-13T07:24:38.182Z,985.35
2018-06-13T07:25:38.170Z,985.35
2018-06-13T07:26:40.178Z,985.28
2018-06-13T07:27:37.799Z,985.27
2018-06-13T07:28:38.671Z,985.30
2018-06-13T07:29:38.020Z,985.36
2018-06-13T07:30:38.676Z,985.35
2018-06-13T07:31:45.173Z,985.35
2018-06-13T07:32:39.170Z,985.36
2018-06-13T07:33:39.207Z,985.37
2018-06-13T07:34:39.176Z,985.41
2018-06-13T07:37:12.930Z,985.43
2018-06-13T07:38:16.937Z,985.37
2018-06-13T07:39:11.942Z,985.41
2018-06-13T07:43:14.108Z,985.44
2018-06-13T07:44:14.112Z,985.46
2018-06-13T07:45:35.112Z,985.42
2018-06-13T07:46:13.716Z,985.46
2018-06-13T07:47:35.622Z,985.47
2018-06-13T07:48:13.974Z,985.43
2018-06-13T07:49:14.612Z,985.48
2018-06-13T07:50:42.114Z,985.53
2018-06-13T07:51:15.121Z,985.51
2018-06-13T07:55:18.041Z,985.53
2018-06-13T07:56:18.049Z,985.56
2018-06-13T07:57:18.048Z,985.58
2018-06-13T07:58:24.551Z,985.52
2018-06-13T07:59:17.783Z,985.55
2018-06-13T08:02:11.072Z,985.55
2018-06-13T08:02:53.501Z,985.62
2018-06-13T08:03:50.567Z,985.68
2018-06-13T08:05:04.573Z,985.56
2018-06-13T08:05:50.566Z,985.54
2018-06-13T08:06:50.566Z,985.55
2018-06-13T08:08:05.067Z,985.56
2018-06-13T08:08:51.068Z,985.56
2018-06-13T08:09:51.070Z,985.58
2018-06-13T08:10:51.078Z,985.57
2018-06-13T08:14:54.309Z,985.59
2018-06-13T08:16:15.277Z,985.64
2018-06-13T08:16:55.323Z,985.68
2018-06-13T08:17:54.790Z,985.52
2018-06-13T08:18:54.010Z,985.60
2018-06-13T08:19:54.775Z,985.73
2018-06-13T08:20:54.775Z,985.77
2018-06-13T08:22:16.274Z,985.70
2018-06-13T08:22:55.271Z,985.69
2018-06-13T08:25:47.765Z,985.70
2018-06-13T08:26:26.769Z,985.69
2018-06-13T08:27:26.769Z,985.69
2018-06-13T08:28:48.237Z,985.69
2018-06-13T08:29:41.276Z,985.68
2018-06-13T08:30:27.268Z,985.67
2018-06-13T08:31:27.267Z,985.72
2018-06-13T08:32:27.829Z,985.67
2018-06-13T08:33:27.058Z,985.68
2018-06-13T08:34:27.770Z,985.64
2018-06-13T08:35:27.768Z,985.67
2018-06-13T08:37:59.520Z,985.65
2018-06-13T08:40:31.020Z,985.70
2018-06-13T08:41:31.032Z,985.71
2018-06-13T08:42:32.031Z,985.73
2018-06-13T08:43:31.530Z,985.71
2018-06-13T08:44:31.536Z,985.77
2018-06-13T08:45:31.532Z,985.72
2018-06-13T08:46:31.533Z,985.76
2018-06-13T08:47:52.121Z,985.76
2018-06-13T08:48:33.489Z,985.77
2018-06-13T08:49:32.032Z,985.81
2018-06-13T08:50:34.035Z,985.78
2018-06-13T08:51:32.033Z,985.80
2018-06-13T08:52:53.533Z,985.82
2018-06-13T08:53:32.964Z,985.80
2018-06-13T08:54:38.534Z,985.75
2018-06-13T08:55:32.009Z,985.83
2018-06-13T08:56:33.038Z,985.76
2018-06-13T08:57:35.031Z,985.83
2018-06-13T08:58:55.473Z,985.77
2018-06-13T08:59:54.033Z,985.80
2018-06-13T09:01:39.533Z,985.83
2018-06-13T09:02:33.531Z,985.84
2018-06-13T09:03:54.472Z,985.80
2018-06-13T09:04:54.534Z,985.79
2018-06-13T09:05:33.538Z,985.85
2018-06-13T09:06:33.131Z,985.85
2018-06-13T09:07:57.036Z,985.84
2018-06-13T09:10:04.849Z,985.76
2018-06-13T09:11:05.537Z,985.82
2018-06-13T09:12:05.540Z,985.82
2018-06-13T09:13:27.042Z,985.79
2018-06-13T09:14:06.039Z,985.81
2018-06-13T09:15:05.393Z,985.85
2018-06-13T09:16:06.051Z,985.86
2018-06-13T09:17:07.974Z,985.86
2018-06-13T09:18:06.542Z,985.84
2018-06-13T09:19:29.540Z,985.83
2018-06-13T09:20:05.891Z,985.83
2018-06-13T09:21:06.541Z,985.82
2018-06-13T09:22:09.039Z,985.80
2018-06-13T09:23:27.245Z,985.82
2018-06-13T09:24:06.348Z,985.76
2018-06-13T09:25:30.040Z,985.80
2018-06-13T09:26:27.559Z,985.74
2018-06-13T09:27:07.543Z,985.78
2018-06-13T09:28:09.545Z,985.79
2018-06-13T09:29:07.540Z,985.81
2018-06-13T09:30:07.541Z,985.83
2018-06-13T09:31:08.056Z,985.82
2018-06-13T09:32:08.539Z,985.83
2018-06-13T09:33:14.040Z,985.91
2018-06-13T09:34:08.039Z,985.90
2018-06-13T09:35:10.541Z,985.93
2018-06-13T09:36:10.541Z,985.94
2018-06-13T09:37:29.608Z,985.93
2018-06-13T09:38:10.973Z,985.92
2018-06-13T09:39:30.040Z,985.94
2018-06-13T09:40:09.037Z,985.99
2018-06-13T09:41:30.039Z,985.93
2018-06-13T09:42:09.041Z,985.95
2018-06-13T09:43:09.539Z,985.96
2018-06-13T09:44:30.540Z,985.91
2018-06-13T09:45:30.540Z,985.95
2018-06-13T09:46:12.014Z,985.94
2018-06-13T09:47:24.041Z,985.93
2018-06-13T09:48:09.270Z,985.96
2018-06-13T09:49:11.472Z,985.96
2018-06-13T09:50:11.517Z,985.98
2018-06-13T09:51:30.577Z,985.92
2018-06-13T09:52:31.546Z,985.93
2018-06-13T09:53:09.757Z,985.90
2018-06-13T09:54:31.550Z,985.90
2018-06-13T09:55:10.539Z,985.90
2018-06-13T09:56:11.041Z,985.95
2018-06-13T09:57:32.041Z,985.94
2018-06-13T09:58:11.043Z,985.96
2018-06-13T10:01:05.977Z,985.95
2018-06-13T10:02:06.728Z,985.93
2018-06-13T10:02:45.695Z,985.99
2018-06-13T10:04:06.277Z,985.98
2018-06-13T10:05:13.191Z,985.95
2018-06-13T10:05:46.185Z,985.97
2018-06-13T10:07:08.186Z,986.02
2018-06-13T10:08:06.774Z,985.95
2018-06-13T10:09:07.687Z,985.94
2018-06-13T10:09:46.685Z,985.96
2018-06-13T10:12:18.222Z,985.97
2018-06-13T10:13:17.572Z,985.99
2018-06-13T10:14:18.237Z,986.00
2018-06-13T10:15:17.839Z,986.04
2018-06-13T10:16:18.729Z,986.06
2018-06-13T10:17:18.732Z,986.07
2018-06-13T10:18:29.665Z,986.07
2018-06-13T10:19:19.231Z,986.07
2018-06-13T10:20:40.237Z,986.11
2018-06-13T10:21:19.272Z,986.11
2018-06-13T10:22:19.233Z,986.06
2018-06-13T10:23:19.735Z,986.04
2018-06-13T10:24:19.763Z,985.99
2018-06-13T10:25:19.077Z,986.05
2018-06-13T10:26:19.729Z,986.05
2018-06-13T10:28:51.501Z,985.98
2018-06-13T10:29:50.831Z,986.03
2018-06-13T10:30:51.489Z,986.04
2018-06-13T10:31:52.000Z,986.04
2018-06-13T10:32:52.986Z,986.07
2018-06-13T10:35:39.925Z,986.10
2018-06-13T10:36:23.491Z,986.18
2018-06-13T10:37:24.950Z,986.13
2018-06-13T10:40:16.195Z,986.17
2018-06-13T10:40:57.202Z,986.19
2018-06-13T10:41:55.199Z,986.20
2018-06-13T10:43:09.702Z,986.28
2018-06-13T10:43:54.937Z,986.28
2018-06-13T10:45:16.702Z,986.26
2018-06-13T10:45:55.704Z,986.27
2018-06-13T10:48:27.467Z,986.26
2018-06-13T10:49:49.451Z,986.30
2018-06-13T10:50:27.454Z,986.30
2018-06-13T10:53:00.158Z,986.30
2018-06-13T10:54:00.222Z,986.30
2018-06-13T10:55:20.219Z,986.30
2018-06-13T10:56:26.725Z,986.25
2018-06-13T10:58:31.102Z,986.23
2018-06-13T10:59:31.102Z,986.28
2018-06-13T11:00:31.113Z,986.26
2018-06-13T11:01:35.082Z,986.25
2018-06-13T11:02:53.617Z,986.25
2018-06-13T11:03:31.606Z,986.24
2018-06-13T11:04:32.135Z,986.24
2018-06-13T11:05:31.261Z,986.24
2018-06-13T11:08:09.503Z,986.37
2018-06-13T11:09:03.521Z,986.34
2018-06-13T11:10:24.519Z,986.33
2018-06-13T11:12:34.843Z,986.33
2018-06-13T11:13:56.764Z,986.35
2018-06-13T11:14:57.694Z,986.31
2018-06-13T11:15:35.770Z,986.34
2018-06-13T11:16:36.717Z,986.29
2018-06-13T11:17:36.263Z,986.28
2018-06-13T11:20:07.647Z,986.30
2018-06-13T11:21:08.149Z,986.26
2018-06-13T11:22:08.150Z,986.28
2018-06-13T11:23:10.083Z,986.33
2018-06-13T11:24:09.151Z,986.30
2018-06-13T11:25:08.160Z,986.25
2018-06-13T11:26:08.675Z,986.25
2018-06-13T11:29:13.514Z,986.21
2018-06-13T11:30:13.518Z,986.22
2018-06-13T11:30:54.523Z,986.24
2018-06-13T11:33:38.032Z,986.24
2018-06-13T11:34:23.417Z,986.27
2018-06-13T11:35:24.039Z,986.32
2018-06-13T11:36:38.540Z,986.35
2018-06-13T11:38:55.917Z,986.33
2018-06-13T11:39:55.922Z,986.32
2018-06-13T11:40:55.921Z,986.33
2018-06-13T11:42:19.422Z,986.29
2018-06-13T11:42:57.896Z,986.23
2018-06-13T11:43:57.420Z,986.24
2018-06-13T11:44:56.423Z,986.23
2018-06-13T11:49:20.864Z,986.29
2018-06-13T11:49:59.667Z,986.30
2018-06-13T11:51:01.612Z,986.25
2018-06-13T11:51:59.643Z,986.21
2018-06-13T11:53:14.146Z,986.18
2018-06-13T11:54:00.159Z,986.20
2018-06-13T11:55:00.151Z,986.20
2018-06-13T11:56:00.159Z,986.14
2018-06-13T11:57:21.644Z,986.17
2018-06-13T11:58:14.646Z,986.12
2018-06-13T11:59:21.655Z,986.14
2018-06-13T12:00:21.667Z,986.14
2018-06-13T12:01:22.143Z,986.14
2018-06-13T12:02:22.145Z,986.14
2018-06-13T12:03:24.096Z,986.14
2018-06-13T12:05:32.742Z,986.22
2018-06-13T12:06:32.740Z,986.24
2018-06-13T12:07:32.742Z,986.24
2018-06-13T12:10:25.491Z,986.20
2018-06-13T12:11:31.553Z,986.16
2018-06-13T12:12:04.499Z,986.15
2018-06-13T12:13:04.997Z,986.18
2018-06-13T12:14:27.455Z,986.17
2018-06-13T12:15:05.007Z,986.14
2018-06-13T12:16:04.998Z,986.15
2018-06-13T12:17:19.499Z,986.20
2018-06-13T12:18:04.726Z,986.18
2018-06-13T12:19:26.503Z,986.16
2018-06-13T12:20:04.981Z,986.19
2018-06-13T12:21:33.008Z,986.23
2018-06-13T12:22:06.000Z,986.21
2018-06-13T12:23:27.005Z,986.21
2018-06-13T12:24:06.001Z,986.21
2018-06-13T12:25:26.584Z,986.23
2018-06-13T12:26:06.499Z,986.18
2018-06-13T12:27:27.499Z,986.19
2018-06-13T12:28:06.501Z,986.19
2018-06-13T12:29:06.128Z,986.15
2018-06-13T12:30:06.999Z,986.17
2018-06-13T12:32:59.502Z,986.17
2018-06-13T12:33:38.505Z,986.20
2018-06-13T12:34:38.029Z,986.17
2018-06-13T12:35:39.008Z,986.20
2018-06-13T12:36:39.012Z,986.22
2018-06-13T12:37:39.006Z,986.20
2018-06-13T12:38:39.023Z,986.17
2018-06-13T12:39:39.505Z,986.17
2018-06-13T12:40:38.752Z,986.20
2018-06-13T12:42:00.509Z,986.16
2018-06-13T12:42:38.983Z,986.15
2018-06-13T12:43:46.004Z,986.15
2018-06-13T12:44:40.011Z,986.15
2018-06-13T12:46:01.003Z,986.08
2018-06-13T12:46:41.442Z,986.09
2018-06-13T12:47:40.505Z,986.04
2018-06-13T12:48:40.516Z,986.10
2018-06-13T12:49:40.513Z,986.13
2018-06-13T12:50:48.484Z,986.21
2018-06-13T12:51:39.987Z,986.28
2018-06-13T12:52:41.017Z,986.33
2018-06-13T12:53:41.938Z,986.33
2018-06-13T12:56:13.911Z,986.30
2018-06-13T12:57:12.487Z,986.23
2018-06-13T12:58:12.489Z,986.23
2018-06-13T12:59:27.977Z,986.18
2018-06-13T13:00:12.979Z,986.25
2018-06-13T13:01:17.911Z,986.23
2018-06-13T13:02:12.446Z,986.16
2018-06-13T13:03:19.480Z,986.13
2018-06-13T13:04:34.481Z,986.15
2018-06-13T13:06:58.987Z,986.14
2018-06-13T13:07:44.990Z,986.15
2018-06-13T13:08:46.427Z,986.15
2018-06-13T13:11:23.240Z,986.27
2018-06-13T13:12:38.247Z,986.29
2018-06-13T13:13:16.601Z,986.24
2018-06-13T13:14:17.302Z,986.27
2018-06-13T13:16:48.997Z,986.22
2018-06-13T13:17:55.049Z,986.23
2018-06-13T13:19:10.100Z,986.22
2018-06-13T13:21:20.726Z,986.23
2018-06-13T13:22:20.075Z,986.24
2018-06-13T13:23:20.732Z,986.28
2018-06-13T13:24:21.232Z,986.26
2018-06-13T13:26:52.618Z,986.31
2018-06-13T13:27:52.155Z,986.26
2018-06-13T13:28:52.222Z,986.26
2018-06-13T13:29:53.125Z,986.29
2018-06-13T13:31:14.125Z,986.29
2018-06-13T13:31:53.130Z,986.30
2018-06-13T13:33:16.624Z,986.28
2018-06-13T13:33:53.626Z,986.38
2018-06-13T13:34:53.000Z,986.40
2018-06-13T13:35:53.621Z,986.39
2018-06-13T13:36:54.125Z,986.39
2018-06-13T13:37:54.130Z,986.41
2018-06-13T13:39:15.134Z,986.40
2018-06-13T13:39:53.632Z,986.41
2018-06-13T13:41:14.705Z,986.42
2018-06-13T13:41:54.632Z,986.39
2018-06-13T13:42:53.888Z,986.38
2018-06-13T13:43:57.595Z,986.43
2018-06-13T13:44:54.079Z,986.43
2018-06-13T13:49:03.818Z,986.49
2018-06-13T13:49:57.172Z,986.51
2018-06-13T13:50:57.832Z,986.49
2018-06-13T13:52:21.263Z,986.49
2018-06-13T13:52:59.758Z,986.54
2018-06-13T13:53:58.352Z,986.52
2018-06-13T13:54:59.758Z,986.49
2018-06-13T13:56:19.830Z,986.52
2018-06-13T13:57:19.830Z,986.55
2018-06-13T13:58:04.824Z,986.54
2018-06-13T13:58:58.305Z,986.57
2018-06-13T13:59:59.326Z,986.57
2018-06-13T14:02:30.760Z,986.63
2018-06-13T14:03:32.713Z,986.63
2018-06-13T14:04:30.711Z,986.59
2018-06-13T14:05:31.222Z,986.62
2018-06-13T14:06:31.208Z,986.61
2018-06-13T14:07:31.211Z,986.62
2018-06-13T14:08:31.209Z,986.61
2018-06-13T14:09:31.711Z,986.63
2018-06-13T14:10:51.919Z,986.66
2018-06-13T14:11:31.715Z,986.63
2018-06-13T14:14:26.874Z,986.63
2018-06-13T14:15:24.879Z,986.63
2018-06-13T14:16:24.931Z,986.67
2018-06-13T14:17:05.309Z,986.68
2018-06-13T14:18:04.377Z,986.72
2018-06-13T14:19:25.379Z,986.70
2018-06-13T14:20:26.816Z,986.70
2018-06-13T14:21:03.827Z,986.70
2018-06-13T14:22:03.972Z,986.71
2018-06-13T14:24:37.638Z,986.68